createdAt,value
2016-06-30T00:00:11.661Z,45.67
2016-06-30T00:01:12.294Z,45.4
2016-06-30T00:02:11.662Z,45.67
2016-06-30T00:03:12.278Z,45.09
2016-06-30T00:04:12.287Z,45.4
2016-06-30T00:05:12.307Z,45.4
2016-06-30T00:06:12.298Z,45.21
2016-06-30T00:07:12.319Z,46.37
2016-06-30T00:08:12.313Z,46.25
2016-06-30T00:09:11.842Z,46.25
2016-06-30T00:10:12.321Z,46.15
2016-06-30T00:11:11.701Z,46.25
2016-06-30T00:12:12.368Z,46.25
2016-06-30T00:13:11.709Z,46.34
2016-06-30T00:14:12.362Z,47.02
2016-06-30T00:15:11.734Z,46.15
2016-06-30T00:16:12.347Z,47.22
2016-06-30T00:17:12.348Z,47.12
2016-06-30T00:18:11.752Z,46.54
2016-06-30T00:19:12.381Z,46.64
2016-06-30T00:20:12.362Z,46.73
2016-06-30T00:21:12.381Z,46.73
2016-06-30T00:22:13.272Z,47.12
2016-06-30T00:23:11.762Z,46.47
2016-06-30T00:24:12.371Z,46.27
2016-06-30T00:25:11.769Z,46.34
2016-06-30T00:26:12.395Z,46.27
2016-06-30T00:27:12.405Z,46.37
2016-06-30T00:28:12.395Z,46.73
2016-06-30T00:29:12.402Z,46.83
2016-06-30T00:30:12.405Z,46.92
2016-06-30T00:31:12.415Z,46.64
2016-06-30T00:32:11.843Z,46.73
2016-06-30T00:33:13.264Z,46.73
2016-06-30T00:34:12.419Z,46.73
2016-06-30T00:35:12.423Z,46.83
2016-06-30T00:36:12.434Z,46.25
2016-06-30T00:37:12.429Z,46.64
2016-06-30T00:38:12.446Z,46.44
2016-06-30T00:39:11.829Z,46.54
2016-06-30T00:40:11.839Z,46.64
2016-06-30T00:41:12.450Z,47.02
2016-06-30T00:42:12.459Z,46.54
2016-06-30T00:43:12.460Z,46.73
2016-06-30T00:44:12.841Z,46.83
2016-06-30T00:45:12.465Z,46.64
2016-06-30T00:46:11.866Z,46.83
2016-06-30T00:47:11.853Z,46.73
2016-06-30T00:48:11.860Z,47.02
2016-06-30T00:49:12.484Z,47.22
2016-06-30T00:50:11.870Z,46.73
2016-06-30T00:51:12.500Z,47.02
2016-06-30T00:52:12.495Z,46.83
2016-06-30T00:53:12.507Z,47.02
2016-06-30T00:54:12.501Z,46.73
2016-06-30T00:55:12.906Z,46.64
2016-06-30T00:56:12.506Z,46.83
2016-06-30T00:57:11.902Z,46.54
2016-06-30T00:58:11.904Z,46.73
2016-06-30T00:59:12.531Z,46.73
2016-06-30T01:00:12.543Z,45.96
2016-06-30T01:01:12.532Z,46.27
2016-06-30T01:02:12.550Z,46.37
2016-06-30T01:03:12.546Z,46.34
2016-06-30T01:04:11.930Z,46.95
2016-06-30T01:05:11.942Z,46.83
2016-06-30T01:06:12.620Z,46.83
2016-06-30T01:07:12.588Z,46.92
2016-06-30T01:08:11.949Z,47.12
2016-06-30T01:09:11.958Z,46.25
2016-06-30T01:10:11.963Z,46.64
2016-06-30T01:11:11.967Z,46.37
2016-06-30T01:12:12.587Z,46.75
2016-06-30T01:13:12.593Z,46.85
2016-06-30T01:14:12.591Z,47.02
2016-06-30T01:15:12.608Z,46.64
2016-06-30T01:16:12.602Z,46.73
2016-06-30T01:17:12.924Z,46.92
2016-06-30T01:18:12.658Z,46.73
2016-06-30T01:19:12.010Z,46.83
2016-06-30T01:20:12.014Z,46.44
2016-06-30T01:21:12.879Z,47.02
2016-06-30T01:22:12.644Z,46.83
2016-06-30T01:23:12.635Z,46.92
2016-06-30T01:24:12.640Z,46.54
2016-06-30T01:25:12.646Z,46.75
2016-06-30T01:26:12.022Z,46.92
2016-06-30T01:27:12.670Z,46.92
2016-06-30T01:28:12.052Z,47.41
2016-06-30T01:29:12.075Z,47.22
2016-06-30T01:30:12.044Z,47.02
2016-06-30T01:31:12.682Z,46.92
2016-06-30T01:32:13.216Z,47.02
2016-06-30T01:33:12.062Z,46.83
2016-06-30T01:34:12.699Z,47.31
2016-06-30T01:35:12.697Z,47.31
2016-06-30T01:36:12.698Z,46.85
2016-06-30T01:37:12.694Z,47.6
2016-06-30T01:38:12.085Z,47.12
2016-06-30T01:39:12.724Z,46.83
2016-06-30T01:40:12.723Z,47.6
2016-06-30T01:41:13.450Z,47.02
2016-06-30T01:42:12.723Z,47.31
2016-06-30T01:43:12.801Z,47.12
2016-06-30T01:44:12.735Z,47.53
2016-06-30T01:45:12.740Z,47.6
2016-06-30T01:46:12.762Z,47.31
2016-06-30T01:47:12.735Z,47.12
2016-06-30T01:48:12.749Z,46.85
2016-06-30T01:49:12.130Z,47.02
2016-06-30T01:50:12.764Z,47.22
2016-06-30T01:51:12.815Z,47.5
2016-06-30T01:52:13.825Z,47.7
2016-06-30T01:53:12.775Z,47.99
2016-06-30T01:54:12.931Z,47.99
2016-06-30T01:55:12.178Z,48.08
2016-06-30T01:56:12.799Z,47.6
2016-06-30T01:57:12.790Z,47.8
2016-06-30T01:58:12.856Z,48.08
2016-06-30T01:59:12.192Z,48.08
2016-06-30T02:00:12.813Z,48.28
2016-06-30T02:01:12.192Z,48.08
2016-06-30T02:02:12.196Z,47.6
2016-06-30T02:03:13.921Z,48.18
2016-06-30T02:04:12.842Z,47.8
2016-06-30T02:05:12.833Z,47.6
2016-06-30T02:06:12.825Z,47.5
2016-06-30T02:07:13.887Z,47.31
2016-06-30T02:08:12.222Z,47.53
2016-06-30T02:09:12.849Z,47.8
2016-06-30T02:10:12.872Z,47.6
2016-06-30T02:11:12.863Z,48.37
2016-06-30T02:12:12.856Z,47.41
2016-06-30T02:13:12.867Z,47.5
2016-06-30T02:14:12.870Z,47.41
2016-06-30T02:15:12.266Z,47.22
2016-06-30T02:16:12.358Z,47.63
2016-06-30T02:17:12.901Z,47.24
2016-06-30T02:18:13.589Z,47.63
2016-06-30T02:19:12.897Z,47.31
2016-06-30T02:20:12.901Z,48.01
2016-06-30T02:21:12.906Z,47.14
2016-06-30T02:22:12.286Z,47.43
2016-06-30T02:23:12.920Z,46.75
2016-06-30T02:24:12.303Z,47.24
2016-06-30T02:25:12.299Z,47.63
2016-06-30T02:26:12.307Z,47.63
2016-06-30T02:27:12.937Z,48.01
2016-06-30T02:28:12.963Z,48.28
2016-06-30T02:29:12.326Z,47.7
2016-06-30T02:30:12.956Z,47.99
2016-06-30T02:31:12.955Z,48.37
2016-06-30T02:32:12.338Z,47.99
2016-06-30T02:33:12.347Z,48.08
2016-06-30T02:34:12.958Z,47.6
2016-06-30T02:35:12.989Z,47.24
2016-06-30T02:36:12.977Z,47.53
2016-06-30T02:37:12.983Z,46.85
2016-06-30T02:38:12.981Z,48.01
2016-06-30T02:39:13.013Z,47.53
2016-06-30T02:40:13.490Z,48.11
2016-06-30T02:41:12.391Z,48.49
2016-06-30T02:42:12.381Z,48.47
2016-06-30T02:43:12.443Z,47.99
2016-06-30T02:44:12.446Z,47.99
2016-06-30T02:45:12.405Z,48.37
2016-06-30T02:46:12.406Z,48.28
2016-06-30T02:47:13.033Z,48.08
2016-06-30T02:48:12.418Z,47.91
2016-06-30T02:49:13.041Z,48.01
2016-06-30T02:50:13.048Z,48.39
2016-06-30T02:51:12.443Z,48.11
2016-06-30T02:52:12.435Z,47.53
2016-06-30T02:53:12.436Z,48.59
2016-06-30T02:54:12.454Z,49.24
2016-06-30T02:55:12.452Z,49.15
2016-06-30T02:56:13.086Z,48.57
2016-06-30T02:57:13.083Z,48.47
2016-06-30T02:58:12.461Z,49.24
2016-06-30T02:59:12.471Z,48.66
2016-06-30T03:00:13.088Z,48.95
2016-06-30T03:01:12.474Z,48.66
2016-06-30T03:02:13.581Z,49.34
2016-06-30T03:03:13.099Z,49.41
2016-06-30T03:04:13.110Z,49.82
2016-06-30T03:05:13.107Z,48.76
2016-06-30T03:06:12.500Z,49.63
2016-06-30T03:07:13.128Z,50.21
2016-06-30T03:08:12.512Z,49.82
2016-06-30T03:09:13.145Z,50.09
2016-06-30T03:10:13.151Z,49.51
2016-06-30T03:11:12.523Z,49.53
2016-06-30T03:12:13.144Z,49.92
2016-06-30T03:13:13.658Z,50.59
2016-06-30T03:14:13.163Z,49.51
2016-06-30T03:15:13.173Z,49.22
2016-06-30T03:16:13.164Z,49.53
2016-06-30T03:17:13.166Z,50.01
2016-06-30T03:18:12.555Z,49.99
2016-06-30T03:19:13.181Z,50.11
2016-06-30T03:20:13.193Z,50.98
2016-06-30T03:21:12.563Z,50.67
2016-06-30T03:22:13.330Z,49.9
2016-06-30T03:23:13.351Z,50.21
2016-06-30T03:24:14.044Z,50.21
2016-06-30T03:25:13.205Z,49.92
2016-06-30T03:26:12.668Z,49.92
2016-06-30T03:27:13.203Z,50.67
2016-06-30T03:28:13.215Z,49.9
2016-06-30T03:29:13.216Z,49.8
2016-06-30T03:30:13.218Z,49.82
2016-06-30T03:31:13.219Z,50.47
2016-06-30T03:32:13.228Z,49.92
2016-06-30T03:33:13.231Z,49.44
2016-06-30T03:34:13.230Z,49.82
2016-06-30T03:35:13.667Z,50.21
2016-06-30T03:36:12.623Z,49.92
2016-06-30T03:37:13.249Z,50.21
2016-06-30T03:38:12.627Z,50.31
2016-06-30T03:39:13.253Z,50.11
2016-06-30T03:40:13.269Z,50.28
2016-06-30T03:41:13.297Z,49.9
2016-06-30T03:42:13.295Z,50.09
2016-06-30T03:43:13.283Z,49.53
2016-06-30T03:44:12.663Z,49.73
2016-06-30T03:45:13.331Z,49.63
2016-06-30T03:46:13.173Z,49.63
2016-06-30T03:47:13.293Z,50.21
2016-06-30T03:48:14.267Z,50.21
2016-06-30T03:49:12.679Z,49.73
2016-06-30T03:50:13.610Z,49.8
2016-06-30T03:51:12.690Z,50.31
2016-06-30T03:52:12.686Z,49.9
2016-06-30T03:53:13.322Z,50.47
2016-06-30T03:54:12.716Z,50.67
2016-06-30T03:55:13.321Z,50.18
2016-06-30T03:56:13.335Z,50.47
2016-06-30T03:57:13.335Z,50.57
2016-06-30T03:58:13.343Z,51.05
2016-06-30T03:59:12.717Z,50.86
2016-06-30T04:00:13.356Z,50.76
2016-06-30T04:01:13.035Z,50.86
2016-06-30T04:02:12.737Z,50.67
2016-06-30T04:03:12.745Z,49.9
2016-06-30T04:04:13.355Z,49.44
2016-06-30T04:05:13.358Z,49.53
2016-06-30T04:06:13.370Z,50.11
2016-06-30T04:07:13.377Z,49.53
2016-06-30T04:08:12.763Z,49.92
2016-06-30T04:09:12.771Z,50.18
2016-06-30T04:10:14.262Z,50.86
2016-06-30T04:11:13.412Z,50.18
2016-06-30T04:12:13.599Z,50.47
2016-06-30T04:13:13.398Z,50.38
2016-06-30T04:14:12.793Z,50.38
2016-06-30T04:15:13.420Z,50.57
2016-06-30T04:16:13.417Z,50.86
2016-06-30T04:17:12.800Z,51.44
2016-06-30T04:18:13.425Z,51.25
2016-06-30T04:19:13.424Z,50.86
2016-06-30T04:20:13.450Z,50.67
2016-06-30T04:21:13.431Z,51.15
2016-06-30T04:22:13.434Z,50.57
2016-06-30T04:23:13.882Z,51.15
2016-06-30T04:24:13.449Z,51.05
2016-06-30T04:25:13.450Z,50.96
2016-06-30T04:26:13.453Z,50.38
2016-06-30T04:27:12.844Z,51.15
2016-06-30T04:28:12.844Z,50.57
2016-06-30T04:29:13.458Z,50.57
2016-06-30T04:30:13.468Z,51.34
2016-06-30T04:31:13.498Z,50.86
2016-06-30T04:32:14.199Z,50.57
2016-06-30T04:33:12.861Z,50.57
2016-06-30T04:34:13.481Z,50.89
2016-06-30T04:35:12.878Z,51.56
2016-06-30T04:36:12.882Z,51.73
2016-06-30T04:37:13.499Z,51.34
2016-06-30T04:38:13.491Z,51.53
2016-06-30T04:39:13.516Z,51.44
2016-06-30T04:40:13.516Z,51.15
2016-06-30T04:41:12.887Z,51.17
2016-06-30T04:42:13.507Z,50.69
2016-06-30T04:43:12.900Z,51.27
2016-06-30T04:44:13.598Z,51.25
2016-06-30T04:45:13.178Z,51.34
2016-06-30T04:46:13.541Z,51.25
2016-06-30T04:47:14.398Z,51.25
2016-06-30T04:48:13.548Z,51.53
2016-06-30T04:49:12.927Z,52.31
2016-06-30T04:50:13.554Z,52.11
2016-06-30T04:51:12.933Z,51.92
2016-06-30T04:52:13.551Z,52.31
2016-06-30T04:53:12.949Z,51.44
2016-06-30T04:54:12.949Z,51.92
2016-06-30T04:55:13.575Z,51.73
2016-06-30T04:56:13.594Z,51.34
2016-06-30T04:57:13.579Z,52.31
2016-06-30T04:58:14.656Z,52.01
2016-06-30T04:59:12.977Z,52.01
2016-06-30T05:00:12.977Z,52.4
2016-06-30T05:01:13.602Z,52.11
2016-06-30T05:02:13.615Z,52.21
2016-06-30T05:03:13.630Z,51.73
2016-06-30T05:04:13.611Z,52.4
2016-06-30T05:05:13.617Z,51.73
2016-06-30T05:06:13.605Z,51.63
2016-06-30T05:07:13.617Z,50.96
2016-06-30T05:08:13.621Z,51.34
2016-06-30T05:09:13.029Z,51.34
2016-06-30T05:10:13.635Z,50.96
2016-06-30T05:11:13.631Z,50.5
2016-06-30T05:12:13.636Z,50.89
2016-06-30T05:13:13.643Z,50.89
2016-06-30T05:14:13.645Z,50.96
2016-06-30T05:15:13.040Z,51.07
2016-06-30T05:16:13.659Z,51.37
2016-06-30T05:17:13.668Z,52.04
2016-06-30T05:18:13.670Z,51.73
2016-06-30T05:19:13.086Z,52.21
2016-06-30T05:20:14.615Z,51.82
2016-06-30T05:21:13.082Z,51.63
2016-06-30T05:22:13.675Z,51.82
2016-06-30T05:23:13.055Z,52.11
2016-06-30T05:24:13.682Z,52.21
2016-06-30T05:25:13.703Z,51.92
2016-06-30T05:26:13.074Z,51.25
2016-06-30T05:27:13.079Z,51.53
2016-06-30T05:28:13.105Z,51.63
2016-06-30T05:29:13.710Z,51.44
2016-06-30T05:30:13.105Z,51.07
2016-06-30T05:31:14.202Z,51.85
2016-06-30T05:32:13.749Z,51.63
2016-06-30T05:33:13.403Z,51.63
2016-06-30T05:34:13.753Z,51.63
2016-06-30T05:35:13.122Z,51.73
2016-06-30T05:36:13.743Z,52.21
2016-06-30T05:37:13.795Z,51.53
2016-06-30T05:38:13.124Z,51.44
2016-06-30T05:39:13.752Z,50.86
2016-06-30T05:40:13.762Z,50.67
2016-06-30T05:41:13.760Z,50.98
2016-06-30T05:42:14.428Z,51.27
2016-06-30T05:43:13.160Z,52.33
2016-06-30T05:44:13.162Z,52.21
2016-06-30T05:45:13.853Z,52.01
2016-06-30T05:46:13.789Z,51.92
2016-06-30T05:47:13.200Z,51.53
2016-06-30T05:48:13.776Z,51.92
2016-06-30T05:49:13.799Z,51.63
2016-06-30T05:50:13.826Z,50.86
2016-06-30T05:51:13.812Z,51.53
2016-06-30T05:52:13.814Z,51.34
2016-06-30T05:53:14.461Z,51.53
2016-06-30T05:54:13.203Z,50.89
2016-06-30T05:55:13.829Z,50.98
2016-06-30T05:56:13.843Z,51.07
2016-06-30T05:57:13.848Z,51.37
2016-06-30T05:58:13.852Z,51.27
2016-06-30T05:59:13.230Z,50.67
2016-06-30T06:00:13.851Z,51.07
2016-06-30T06:01:13.243Z,51.27
2016-06-30T06:02:13.851Z,51.15
2016-06-30T06:03:13.858Z,51.25
2016-06-30T06:04:13.931Z,51.34
2016-06-30T06:05:13.252Z,51.17
2016-06-30T06:06:13.876Z,51.25
2016-06-30T06:07:13.885Z,51.27
2016-06-30T06:08:13.882Z,50.79
2016-06-30T06:09:13.896Z,50.5
2016-06-30T06:10:13.909Z,51.27
2016-06-30T06:11:13.906Z,50.98
2016-06-30T06:12:13.285Z,51.17
2016-06-30T06:13:13.903Z,50.59
2016-06-30T06:14:13.312Z,50.5
2016-06-30T06:15:14.272Z,51.17
2016-06-30T06:16:13.934Z,51.37
2016-06-30T06:17:14.894Z,51.95
2016-06-30T06:18:13.938Z,51.46
2016-06-30T06:19:14.220Z,51.82
2016-06-30T06:20:13.946Z,52.23
2016-06-30T06:21:13.340Z,52.31
2016-06-30T06:22:13.352Z,51.82
2016-06-30T06:23:13.333Z,51.65
2016-06-30T06:24:13.961Z,52.4
2016-06-30T06:25:13.974Z,52.5
2016-06-30T06:26:13.972Z,52.5
2016-06-30T06:27:13.347Z,53.27
2016-06-30T06:28:13.978Z,52.4
2016-06-30T06:29:13.975Z,52.98
2016-06-30T06:30:13.871Z,51.92
2016-06-30T06:31:13.988Z,51.53
2016-06-30T06:32:14.029Z,52.04
2016-06-30T06:33:14.009Z,51.73
2016-06-30T06:34:13.385Z,51.82
2016-06-30T06:35:14.009Z,51.95
2016-06-30T06:36:14.010Z,51.37
2016-06-30T06:37:14.024Z,50.4
2016-06-30T06:38:14.029Z,50.79
2016-06-30T06:39:13.423Z,51.37
2016-06-30T06:40:13.412Z,51.37
2016-06-30T06:41:14.433Z,51.17
2016-06-30T06:42:14.036Z,51.56
2016-06-30T06:43:13.422Z,51.75
2016-06-30T06:44:14.054Z,51.27
2016-06-30T06:45:13.432Z,50.69
2016-06-30T06:46:13.443Z,50.59
2016-06-30T06:47:14.061Z,51.27
2016-06-30T06:48:14.061Z,51.37
2016-06-30T06:49:14.072Z,51.27
2016-06-30T06:50:13.456Z,50.98
2016-06-30T06:51:14.074Z,50.69
2016-06-30T06:52:14.630Z,50.98
2016-06-30T06:53:14.100Z,51.2
2016-06-30T06:54:14.107Z,50.79
2016-06-30T06:55:14.102Z,50.98
2016-06-30T06:56:14.100Z,51.17
2016-06-30T06:57:14.115Z,50.5
2016-06-30T06:58:13.502Z,49.85
2016-06-30T06:59:13.520Z,50.04
2016-06-30T07:00:14.126Z,50.43
2016-06-30T07:01:14.863Z,50.04
2016-06-30T07:02:14.132Z,50.13
2016-06-30T07:03:14.139Z,50.04
2016-06-30T07:04:14.159Z,50.71
2016-06-30T07:05:14.158Z,51.1
2016-06-30T07:06:13.538Z,51.07
2016-06-30T07:07:14.174Z,50.69
2016-06-30T07:08:14.159Z,51.2
2016-06-30T07:09:14.166Z,51.37
2016-06-30T07:10:13.568Z,50.98
2016-06-30T07:11:14.189Z,51.37
2016-06-30T07:12:14.194Z,51.17
2016-06-30T07:13:14.189Z,51.27
2016-06-30T07:14:13.674Z,50.98
2016-06-30T07:15:14.203Z,51.37
2016-06-30T07:16:13.599Z,51.17
2016-06-30T07:17:14.216Z,51.56
2016-06-30T07:18:13.596Z,51.56
2016-06-30T07:19:14.222Z,51.27
2016-06-30T07:20:14.231Z,51.65
2016-06-30T07:21:14.239Z,52.14
2016-06-30T07:22:14.235Z,52.14
2016-06-30T07:23:13.624Z,52.43
2016-06-30T07:24:13.633Z,51.53
2016-06-30T07:25:14.293Z,51.46
2016-06-30T07:26:14.275Z,51.27
2016-06-30T07:27:13.641Z,51.27
2016-06-30T07:28:14.263Z,51.95
2016-06-30T07:29:14.266Z,51.27
2016-06-30T07:30:13.659Z,51.07
2016-06-30T07:31:14.274Z,51.46
2016-06-30T07:32:14.283Z,50.31
2016-06-30T07:33:13.665Z,50.98
2016-06-30T07:34:14.290Z,50.59
2016-06-30T07:35:13.683Z,50.52
2016-06-30T07:36:14.298Z,50.71
2016-06-30T07:37:13.686Z,51.49
2016-06-30T07:38:15.265Z,51.27
2016-06-30T07:39:13.693Z,52.23
2016-06-30T07:40:13.706Z,51.75
2016-06-30T07:41:13.709Z,51.95
2016-06-30T07:42:14.342Z,51.27
2016-06-30T07:43:14.348Z,51.37
2016-06-30T07:44:13.718Z,51.07
2016-06-30T07:45:14.342Z,51.37
2016-06-30T07:46:14.397Z,51.27
2016-06-30T07:47:15.327Z,51.27
2016-06-30T07:48:13.739Z,51.27
2016-06-30T07:49:14.714Z,51.95
2016-06-30T07:50:13.742Z,51.75
2016-06-30T07:51:14.368Z,51.75
2016-06-30T07:52:14.366Z,52.33
2016-06-30T07:53:14.370Z,52.21
2016-06-30T07:54:14.378Z,52.14
2016-06-30T07:55:14.393Z,52.43
2016-06-30T07:56:13.778Z,51.75
2016-06-30T07:57:14.396Z,50.98
2016-06-30T07:58:14.424Z,51.17
2016-06-30T07:59:13.787Z,51.27
2016-06-30T08:00:14.256Z,51.37
2016-06-30T08:01:14.421Z,51.2
2016-06-30T08:02:15.393Z,51.27
2016-06-30T08:03:14.413Z,51.46
2016-06-30T08:04:13.806Z,51.27
2016-06-30T08:05:14.432Z,51.46
2016-06-30T08:06:14.446Z,51.17
2016-06-30T08:07:13.834Z,51.56
2016-06-30T08:08:14.445Z,51.37
2016-06-30T08:09:13.871Z,51.46
2016-06-30T08:10:14.460Z,51.56
2016-06-30T08:11:14.711Z,51.75
2016-06-30T08:12:14.463Z,51.27
2016-06-30T08:13:14.471Z,51.37
2016-06-30T08:14:14.490Z,51.37
2016-06-30T08:15:13.857Z,51.17
2016-06-30T08:16:14.490Z,51.17
2016-06-30T08:17:14.497Z,50.79
2016-06-30T08:18:14.507Z,50.59
2016-06-30T08:19:13.881Z,50.79
2016-06-30T08:20:14.506Z,50.52
2016-06-30T08:21:14.558Z,50.71
2016-06-30T08:22:14.642Z,51.07
2016-06-30T08:23:14.524Z,50.89
2016-06-30T08:24:14.525Z,50.69
2016-06-30T08:25:14.534Z,50.71
2016-06-30T08:26:14.537Z,50.5
2016-06-30T08:27:14.533Z,50.52
2016-06-30T08:28:13.971Z,50.13
2016-06-30T08:29:13.927Z,50.52
2016-06-30T08:30:14.553Z,50.52
2016-06-30T08:31:14.567Z,50.23
2016-06-30T08:32:14.555Z,51.01
2016-06-30T08:33:15.166Z,51.27
2016-06-30T08:34:14.570Z,51.17
2016-06-30T08:35:14.614Z,50.59
2016-06-30T08:36:14.591Z,50.59
2016-06-30T08:37:13.963Z,51.01
2016-06-30T08:38:14.597Z,50.79
2016-06-30T08:39:14.597Z,50.23
2016-06-30T08:40:14.224Z,50.13
2016-06-30T08:41:14.610Z,50.23
2016-06-30T08:42:14.629Z,50.52
2016-06-30T08:43:14.611Z,51.1
2016-06-30T08:44:15.379Z,51.97
2016-06-30T08:45:14.641Z,51.97
2016-06-30T08:46:14.627Z,51.39
2016-06-30T08:47:14.066Z,51.59
2016-06-30T08:48:15.205Z,51.39
2016-06-30T08:49:14.042Z,51.39
2016-06-30T08:50:14.643Z,52.04
2016-06-30T08:51:14.659Z,51.39
2016-06-30T08:52:14.672Z,51.46
2016-06-30T08:53:14.703Z,51.01
2016-06-30T08:54:14.054Z,50.62
2016-06-30T08:55:14.673Z,51.29
2016-06-30T08:56:14.899Z,51.59
2016-06-30T08:57:14.073Z,51.39
2016-06-30T08:58:14.097Z,51.39
2016-06-30T08:59:14.691Z,50.81
2016-06-30T09:00:14.098Z,51.29
2016-06-30T09:01:14.711Z,51.29
2016-06-30T09:02:14.722Z,51.2
2016-06-30T09:03:14.740Z,51.39
2016-06-30T09:04:14.768Z,51.49
2016-06-30T09:05:14.738Z,50.91
2016-06-30T09:06:14.734Z,50.62
2016-06-30T09:07:14.747Z,50.62
2016-06-30T09:08:15.867Z,51.01
2016-06-30T09:09:14.756Z,50.71
2016-06-30T09:10:14.778Z,51.01
2016-06-30T09:11:14.779Z,50.43
2016-06-30T09:12:14.161Z,50.71
2016-06-30T09:13:14.782Z,49.95
2016-06-30T09:14:14.782Z,50.62
2016-06-30T09:15:14.788Z,50.23
2016-06-30T09:16:14.791Z,50.13
2016-06-30T09:17:14.803Z,50.13
2016-06-30T09:18:14.819Z,50.23
2016-06-30T09:19:14.211Z,50.16
2016-06-30T09:20:14.815Z,49.95
2016-06-30T09:21:14.822Z,50.26
2016-06-30T09:22:14.833Z,50.13
2016-06-30T09:23:14.887Z,50.62
2016-06-30T09:24:14.851Z,49.95
2016-06-30T09:25:14.235Z,50.13
2016-06-30T09:26:14.867Z,49.97
2016-06-30T09:27:14.863Z,49.95
2016-06-30T09:28:14.858Z,49.75
2016-06-30T09:29:14.882Z,49.37
2016-06-30T09:30:15.359Z,49.97
2016-06-30T09:31:14.263Z,49.85
2016-06-30T09:32:14.885Z,49.65
2016-06-30T09:33:14.275Z,49.68
2016-06-30T09:34:16.023Z,49.49
2016-06-30T09:35:14.908Z,49.58
2016-06-30T09:36:14.303Z,49.77
2016-06-30T09:37:14.298Z,49.75
2016-06-30T09:38:14.924Z,49.68
2016-06-30T09:39:14.932Z,49.58
2016-06-30T09:40:14.943Z,48.81
2016-06-30T09:41:14.958Z,49.17
2016-06-30T09:42:14.342Z,49.37
2016-06-30T09:43:14.954Z,48.88
2016-06-30T09:44:14.955Z,49.55
2016-06-30T09:45:16.019Z,49.75
2016-06-30T09:46:14.351Z,49.27
2016-06-30T09:47:14.984Z,49.46
2016-06-30T09:48:14.367Z,50.04
2016-06-30T09:49:14.419Z,49.55
2016-06-30T09:50:14.990Z,49.37
2016-06-30T09:51:15.004Z,49.55
2016-06-30T09:52:15.015Z,49.65
2016-06-30T09:53:15.004Z,49.68
2016-06-30T09:54:16.036Z,49.68
2016-06-30T09:55:14.406Z,49.29
2016-06-30T09:56:15.436Z,48.81
2016-06-30T09:57:15.033Z,49.49
2016-06-30T09:58:15.042Z,49.39
2016-06-30T09:59:15.052Z,49.19
2016-06-30T10:00:14.444Z,49.39
2016-06-30T10:01:15.056Z,49.49
2016-06-30T10:02:15.071Z,48.71
2016-06-30T10:03:15.075Z,48.71
2016-06-30T10:04:15.094Z,48.71
2016-06-30T10:05:15.097Z,49.49
2016-06-30T10:06:14.515Z,48.9
2016-06-30T10:07:15.535Z,48.61
2016-06-30T10:08:15.229Z,48.61
2016-06-30T10:09:14.485Z,49.19
2016-06-30T10:10:15.111Z,49.1
2016-06-30T10:11:15.113Z,48.61
2016-06-30T10:12:14.514Z,48.9
2016-06-30T10:13:14.509Z,49.19
2016-06-30T10:14:15.140Z,49.19
2016-06-30T10:15:14.530Z,48.9
2016-06-30T10:16:15.618Z,48.81
2016-06-30T10:17:14.538Z,49.68
2016-06-30T10:18:15.146Z,49.77
2016-06-30T10:19:15.174Z,49.87
2016-06-30T10:20:16.251Z,48.71
2016-06-30T10:21:14.553Z,49
2016-06-30T10:22:14.566Z,48.81
2016-06-30T10:23:15.188Z,48.9
2016-06-30T10:24:15.187Z,49.39
2016-06-30T10:25:15.203Z,49.19
2016-06-30T10:26:15.194Z,49.1
2016-06-30T10:27:15.213Z,48.9
2016-06-30T10:28:15.212Z,49.39
2016-06-30T10:29:14.698Z,48.9
2016-06-30T10:30:15.225Z,48.81
2016-06-30T10:31:15.849Z,49
2016-06-30T10:32:14.611Z,49.19
2016-06-30T10:33:15.275Z,48.9
2016-06-30T10:34:14.622Z,49
2016-06-30T10:35:15.255Z,49
2016-06-30T10:36:15.253Z,49.1
2016-06-30T10:37:15.255Z,48.9
2016-06-30T10:38:15.264Z,48.97
2016-06-30T10:39:15.257Z,49.1
2016-06-30T10:40:15.275Z,49.19
2016-06-30T10:41:15.277Z,49.49
2016-06-30T10:42:16.386Z,48.81
2016-06-30T10:43:15.301Z,49.29
2016-06-30T10:44:15.286Z,48.81
2016-06-30T10:45:15.327Z,48.9
2016-06-30T10:46:15.307Z,48.71
2016-06-30T10:47:15.308Z,49.39
2016-06-30T10:48:15.313Z,48.61
2016-06-30T10:49:15.374Z,49.77
2016-06-30T10:50:14.716Z,49
2016-06-30T10:51:15.334Z,49.68
2016-06-30T10:52:15.348Z,49.58
2016-06-30T10:53:15.860Z,49.19
2016-06-30T10:54:15.349Z,49.1
2016-06-30T10:55:15.379Z,49.68
2016-06-30T10:56:15.362Z,48.81
2016-06-30T10:57:15.376Z,49.49
2016-06-30T10:58:15.379Z,49.68
2016-06-30T10:59:14.756Z,49.68
2016-06-30T11:00:15.392Z,49.68
2016-06-30T11:01:14.779Z,49.58
2016-06-30T11:02:15.400Z,49.39
2016-06-30T11:03:15.401Z,50.07
2016-06-30T11:04:16.270Z,49.95
2016-06-30T11:05:15.423Z,49.39
2016-06-30T11:06:15.418Z,49.95
2016-06-30T11:07:14.811Z,49.27
2016-06-30T11:08:14.825Z,49.39
2016-06-30T11:09:15.455Z,49.27
2016-06-30T11:10:14.823Z,49.58
2016-06-30T11:11:15.455Z,49.49
2016-06-30T11:12:14.842Z,49.68
2016-06-30T11:13:15.458Z,48.81
2016-06-30T11:14:14.849Z,48.81
2016-06-30T11:15:14.842Z,49
2016-06-30T11:16:14.855Z,49
2016-06-30T11:17:15.482Z,49
2016-06-30T11:18:15.480Z,49
2016-06-30T11:19:15.500Z,49.19
2016-06-30T11:20:15.494Z,49.19
2016-06-30T11:21:15.499Z,48.81
2016-06-30T11:22:15.507Z,49.19
2016-06-30T11:23:15.515Z,49
2016-06-30T11:24:15.516Z,49.49
2016-06-30T11:25:15.538Z,48.61
2016-06-30T11:26:16.615Z,49
2016-06-30T11:27:15.537Z,48.81
2016-06-30T11:28:15.740Z,49.29
2016-06-30T11:29:15.535Z,48.9
2016-06-30T11:30:14.942Z,49.1
2016-06-30T11:31:14.943Z,48.71
2016-06-30T11:32:15.568Z,49.68
2016-06-30T11:33:15.562Z,48.71
2016-06-30T11:34:15.573Z,48.9
2016-06-30T11:35:15.574Z,49.1
2016-06-30T11:36:14.978Z,48.81
2016-06-30T11:37:16.077Z,48.71
2016-06-30T11:38:15.591Z,49.29
2016-06-30T11:39:15.604Z,48.9
2016-06-30T11:40:15.614Z,48.61
2016-06-30T11:41:15.619Z,49.19
2016-06-30T11:42:15.620Z,48.9
2016-06-30T11:43:15.629Z,49
2016-06-30T11:44:15.632Z,49.1
2016-06-30T11:45:15.016Z,49.49
2016-06-30T11:46:15.635Z,48.81
2016-06-30T11:47:15.681Z,49.29
2016-06-30T11:48:15.052Z,49
2016-06-30T11:49:15.105Z,49.68
2016-06-30T11:50:15.051Z,49.58
2016-06-30T11:51:15.746Z,49.49
2016-06-30T11:52:15.713Z,49.77
2016-06-30T11:53:15.673Z,49.87
2016-06-30T11:54:15.683Z,48.9
2016-06-30T11:55:15.086Z,49.97
2016-06-30T11:56:15.079Z,49.87
2016-06-30T11:57:15.710Z,49.29
2016-06-30T11:58:15.712Z,49.68
2016-06-30T11:59:16.287Z,49.19
2016-06-30T12:00:15.114Z,49.39
2016-06-30T12:01:15.725Z,49.58
2016-06-30T12:02:15.730Z,49.87
2016-06-30T12:03:16.832Z,49
2016-06-30T12:04:15.738Z,49.19
2016-06-30T12:05:15.135Z,48.9
2016-06-30T12:06:15.160Z,49.29
2016-06-30T12:07:15.763Z,49.49
2016-06-30T12:08:15.758Z,48.81
2016-06-30T12:09:15.775Z,49.19
2016-06-30T12:10:15.158Z,48.9
2016-06-30T12:11:15.162Z,49.39
2016-06-30T12:12:15.847Z,49
2016-06-30T12:13:15.166Z,49.39
2016-06-30T12:14:16.399Z,49.68
2016-06-30T12:15:15.806Z,49.85
2016-06-30T12:16:15.202Z,50.26
2016-06-30T12:17:15.188Z,50.16
2016-06-30T12:18:15.224Z,50.16
2016-06-30T12:19:15.822Z,50.07
2016-06-30T12:20:15.830Z,49.87
2016-06-30T12:21:15.833Z,50.35
2016-06-30T12:22:15.854Z,49.97
2016-06-30T12:23:15.840Z,49.77
2016-06-30T12:24:15.867Z,49.19
2016-06-30T12:25:16.751Z,49.58
2016-06-30T12:26:15.862Z,49.68
2016-06-30T12:27:15.868Z,49.19
2016-06-30T12:28:15.890Z,49.39
2016-06-30T12:29:15.265Z,49.87
2016-06-30T12:30:15.952Z,50.07
2016-06-30T12:31:15.888Z,49.58
2016-06-30T12:32:15.927Z,50.07
2016-06-30T12:33:15.903Z,50.35
2016-06-30T12:34:15.895Z,50.07
2016-06-30T12:35:15.287Z,49.68
2016-06-30T12:36:16.241Z,49.77
2016-06-30T12:37:15.966Z,49.97
2016-06-30T12:38:15.929Z,49.77
2016-06-30T12:39:15.940Z,49.87
2016-06-30T12:40:15.928Z,50.07
2016-06-30T12:41:15.936Z,49.77
2016-06-30T12:42:15.325Z,49.77
2016-06-30T12:43:15.945Z,49.58
2016-06-30T12:44:15.968Z,49.68
2016-06-30T12:45:15.958Z,49.49
2016-06-30T12:46:15.970Z,49.97
2016-06-30T12:47:16.630Z,49.87
2016-06-30T12:48:15.358Z,50.07
2016-06-30T12:49:15.980Z,49.39
2016-06-30T12:50:15.989Z,49.97
2016-06-30T12:51:16.038Z,49.77
2016-06-30T12:52:15.998Z,49.58
2016-06-30T12:53:16.009Z,50.07
2016-06-30T12:54:16.012Z,50.26
2016-06-30T12:55:16.053Z,49.58
2016-06-30T12:56:16.026Z,50.07